createdAt,value
2018-12-21T00:01:20.691Z,96.39
2018-12-21T00:03:48.303Z,96.79
2018-12-21T00:06:15.868Z,96.08
2018-12-21T00:08:43.445Z,96.12
2018-12-21T00:11:11.033Z,96.41
2018-12-21T00:13:38.652Z,96.19
2018-12-21T00:16:06.206Z,95.60
2018-12-21T00:18:33.808Z,96.40
2018-12-21T00:21:01.362Z,95.88
2018-12-21T00:23:29.043Z,96.06
2018-12-21T00:25:56.663Z,95.65
2018-12-21T00:28:24.247Z,96.21
2018-12-21T00:30:57.457Z,96.17
2018-12-21T00:33:30.657Z,95.69
2018-12-21T00:36:03.828Z,95.66
2018-12-21T00:38:36.989Z,95.55
2018-12-21T00:41:10.065Z,95.53
2018-12-21T00:43:39.712Z,95.94
2018-12-21T00:46:09.574Z,96.03
2018-12-21T00:48:37.176Z,95.76
2018-12-21T00:51:04.908Z,96.22
2018-12-21T00:53:32.813Z,96.31
2018-12-21T00:56:00.403Z,96.49
2018-12-21T00:58:27.961Z,96.44
2018-12-21T01:00:55.543Z,96.35
2018-12-21T01:03:23.118Z,96.00
2018-12-21T01:05:50.705Z,96.40
2018-12-21T01:08:18.339Z,96.42
2018-12-21T01:10:46.000Z,96.47
2018-12-21T01:13:13.614Z,96.28
2018-12-21T01:15:41.268Z,95.61
2018-12-21T01:18:08.872Z,95.43
2018-12-21T01:20:36.950Z,95.43
2018-12-21T01:23:04.608Z,95.42
2018-12-21T01:25:32.159Z,95.89
2018-12-21T01:27:59.774Z,95.99
2018-12-21T01:30:27.480Z,95.70
2018-12-21T01:32:55.179Z,96.00
2018-12-21T01:35:23.806Z,95.60
2018-12-21T01:37:51.451Z,95.54
2018-12-21T01:40:19.053Z,95.36
2018-12-21T01:42:46.689Z,96.10
2018-12-21T01:45:14.294Z,95.92
2018-12-21T01:47:41.838Z,95.37
2018-12-21T01:50:09.425Z,95.91
2018-12-21T01:52:37.054Z,95.72
2018-12-21T01:55:05.136Z,95.33
2018-12-21T01:57:32.732Z,95.29
2018-12-21T02:00:00.329Z,95.04
2018-12-21T02:02:27.936Z,94.91
2018-12-21T02:04:56.208Z,95.05
2018-12-21T02:07:23.768Z,94.73
2018-12-21T02:09:51.350Z,95.23
2018-12-21T02:12:18.957Z,95.19
2018-12-21T02:14:46.544Z,95.01
2018-12-21T02:17:14.282Z,94.78
2018-12-21T02:19:41.872Z,95.37
2018-12-21T02:22:09.435Z,94.72
2018-12-21T02:24:36.998Z,94.83
2018-12-21T02:27:04.570Z,94.57
2018-12-21T02:29:32.142Z,94.92
2018-12-21T02:31:59.781Z,94.48
2018-12-21T02:34:27.361Z,94.56
2018-12-21T02:36:55.283Z,94.22
2018-12-21T02:39:22.865Z,94.68
2018-12-21T02:41:50.508Z,94.05
2018-12-21T02:44:18.171Z,94.42
2018-12-21T02:46:45.759Z,94.52
2018-12-21T02:49:13.412Z,94.48
2018-12-21T02:51:41.369Z,94.72
2018-12-21T02:54:08.971Z,94.67
2018-12-21T02:56:36.622Z,94.60
2018-12-21T02:59:04.312Z,94.57
2018-12-21T03:01:31.931Z,94.43
2018-12-21T03:03:59.606Z,94.74
2018-12-21T03:06:27.260Z,94.70
2018-12-21T03:08:54.902Z,94.55
2018-12-21T03:11:22.450Z,94.58
2018-12-21T03:13:50.013Z,94.86
2018-12-21T03:16:17.591Z,94.70
2018-12-21T03:18:45.196Z,95.86
2018-12-21T03:21:13.003Z,96.18
2018-12-21T03:23:40.649Z,97.06
2018-12-21T03:26:08.242Z,97.64
2018-12-21T03:28:35.858Z,97.80
2018-12-21T03:31:03.513Z,98.67
2018-12-21T03:33:31.216Z,98.06
2018-12-21T03:35:58.819Z,98.56
2018-12-21T03:38:26.394Z,98.70
2018-12-21T03:40:54.241Z,99.00
2018-12-21T03:43:21.834Z,99.80
2018-12-21T03:45:49.445Z,99.50
2018-12-21T03:48:17.098Z,99.77
2018-12-21T03:50:44.671Z,100.00
2018-12-21T03:53:12.261Z,100.00
2018-12-21T03:55:39.832Z,99.92
2018-12-21T03:58:07.422Z,99.91
2018-12-21T04:00:34.984Z,100.00
2018-12-21T04:03:02.617Z,100.00
2018-12-21T04:05:30.557Z,100.00
2018-12-21T04:07:58.107Z,100.00
2018-12-21T04:10:25.752Z,100.00
2018-12-21T04:12:53.346Z,100.00
2018-12-21T04:15:20.898Z,100.00
2018-12-21T04:17:48.485Z,100.00
2018-12-21T04:20:16.072Z,100.00
2018-12-21T04:22:43.680Z,100.00
2018-12-21T04:25:11.261Z,100.00
2018-12-21T04:27:38.860Z,100.00
2018-12-21T04:30:08.231Z,100.00
2018-12-21T04:32:35.799Z,100.00
2018-12-21T04:35:03.657Z,100.00
2018-12-21T04:37:31.265Z,100.00
2018-12-21T04:39:58.876Z,100.00
2018-12-21T04:42:26.453Z,100.00
2018-12-21T04:44:54.078Z,100.00
2018-12-21T04:47:21.647Z,100.00
2018-12-21T04:49:49.614Z,100.00
2018-12-21T04:52:17.189Z,100.00
2018-12-21T04:54:44.823Z,100.00
2018-12-21T04:57:12.371Z,100.00
2018-12-21T04:59:39.987Z,100.00
2018-12-21T05:02:07.581Z,100.00
2018-12-21T05:04:35.489Z,100.00
2018-12-21T05:07:12.035Z,100.00
2018-12-21T05:09:32.760Z,100.00
2018-12-21T05:12:00.425Z,100.00
2018-12-21T05:14:28.086Z,100.00
2018-12-21T05:16:55.707Z,100.00
2018-12-21T05:19:24.127Z,100.00
2018-12-21T05:21:51.960Z,100.00
2018-12-21T05:24:19.558Z,100.00
2018-12-21T05:26:47.135Z,100.00
2018-12-21T05:29:14.724Z,100.00
2018-12-21T05:31:42.313Z,100.00
2018-12-21T05:34:10.034Z,100.00
2018-12-21T05:36:37.669Z,100.00
2018-12-21T05:39:05.880Z,100.00
2018-12-21T05:41:33.502Z,100.00
2018-12-21T05:44:01.042Z,100.00
2018-12-21T05:46:28.636Z,100.00
2018-12-21T05:48:56.182Z,100.00
2018-12-21T05:51:23.895Z,100.00
2018-12-21T05:53:51.517Z,100.00
2018-12-21T05:56:19.094Z,100.00
2018-12-21T05:58:46.779Z,100.00
2018-12-21T06:01:14.425Z,100.00
2018-12-21T06:03:41.987Z,100.00
2018-12-21T06:06:09.812Z,100.00
2018-12-21T06:08:37.394Z,100.00
2018-12-21T06:11:05.013Z,100.00
2018-12-21T06:13:32.914Z,100.00
2018-12-21T06:16:00.780Z,100.00
2018-12-21T06:18:29.091Z,100.00
2018-12-21T06:20:56.693Z,100.00
2018-12-21T06:23:24.275Z,100.00
2018-12-21T06:25:51.921Z,100.00
2018-12-21T06:28:19.489Z,100.00
2018-12-21T06:30:47.116Z,100.00
2018-12-21T06:33:14.702Z,100.00
2018-12-21T06:35:42.328Z,100.00
2018-12-21T06:38:09.871Z,100.00
2018-12-21T06:40:37.515Z,100.00
2018-12-21T06:43:05.144Z,100.00
2018-12-21T06:45:32.770Z,100.00
2018-12-21T06:48:00.347Z,100.00
2018-12-21T06:50:27.944Z,100.00
2018-12-21T06:52:55.675Z,100.00
2018-12-21T06:55:23.397Z,100.00
2018-12-21T06:57:51.028Z,100.00
2018-12-21T07:00:19.039Z,100.00
2018-12-21T07:02:46.655Z,100.00
2018-12-21T07:05:14.271Z,100.00
2018-12-21T07:07:41.941Z,100.00
2018-12-21T07:10:10.183Z,100.00
2018-12-21T07:12:37.831Z,100.00
2018-12-21T07:15:06.765Z,100.00
2018-12-21T07:17:34.423Z,100.00
2018-12-21T07:20:02.168Z,100.00
2018-12-21T07:22:29.783Z,100.00
2018-12-21T07:24:57.646Z,100.00
2018-12-21T07:27:25.271Z,100.00
2018-12-21T07:29:52.870Z,100.00
2018-12-21T07:32:20.516Z,100.00
2018-12-21T07:34:48.102Z,100.00
2018-12-21T07:37:15.671Z,100.00
2018-12-21T07:39:43.255Z,100.00
2018-12-21T07:42:10.886Z,100.00
2018-12-21T07:44:38.432Z,100.00
2018-12-21T07:47:06.389Z,100.00
2018-12-21T07:49:34.019Z,100.00
2018-12-21T07:52:01.662Z,100.00
2018-12-21T07:54:29.279Z,100.00
2018-12-21T07:56:56.848Z,100.00
2018-12-21T07:59:24.698Z,100.00
2018-12-21T08:01:52.340Z,100.00
2018-12-21T08:04:19.922Z,100.00
2018-12-21T08:06:47.586Z,100.00
2018-12-21T08:09:15.178Z,100.00
2018-12-21T08:11:42.743Z,100.00
2018-12-21T08:14:10.438Z,100.00
2018-12-21T08:16:38.042Z,100.00
2018-12-21T08:19:05.613Z,100.00
2018-12-21T08:21:33.230Z,100.00
2018-12-21T08:24:00.794Z,100.00
2018-12-21T08:26:28.532Z,100.00
2018-12-21T08:28:56.162Z,100.00
2018-12-21T08:31:23.730Z,100.00
2018-12-21T08:33:51.307Z,100.00
2018-12-21T08:36:18.967Z,100.00
2018-12-21T08:38:46.578Z,100.00
2018-12-21T08:41:14.159Z,99.95
2018-12-21T08:43:41.819Z,99.78
2018-12-21T08:46:09.400Z,99.74
2018-12-21T08:48:37.011Z,99.68
2018-12-21T08:51:05.182Z,99.52
2018-12-21T08:53:32.744Z,99.60
2018-12-21T08:56:00.316Z,99.61
2018-12-21T08:58:28.308Z,99.46
2018-12-21T09:00:55.927Z,98.94
2018-12-21T09:03:23.591Z,99.29
2018-12-21T09:05:51.292Z,99.39
2018-12-21T09:08:19.157Z,99.15
2018-12-21T09:10:46.802Z,99.02
2018-12-21T09:13:14.435Z,98.57
2018-12-21T09:15:42.088Z,98.25
2018-12-21T09:18:09.646Z,98.62
2018-12-21T09:20:37.220Z,98.69
2018-12-21T09:23:04.798Z,98.21
2018-12-21T09:25:32.388Z,98.13
2018-12-21T09:27:59.999Z,98.23
2018-12-21T09:30:27.632Z,96.93
2018-12-21T09:32:55.475Z,97.38
2018-12-21T09:35:23.048Z,97.14
2018-12-21T09:37:50.658Z,96.90
2018-12-21T09:40:18.366Z,97.05
2018-12-21T09:42:46.097Z,96.75
2018-12-21T09:45:13.748Z,96.08
2018-12-21T09:47:41.450Z,96.03
2018-12-21T09:50:09.055Z,95.12
2018-12-21T09:52:36.655Z,95.36
2018-12-21T09:55:04.688Z,94.82
2018-12-21T09:57:32.265Z,94.67
2018-12-21T09:59:59.874Z,95.11
2018-12-21T10:02:35.527Z,94.75
2018-12-21T10:04:57.124Z,94.14
2018-12-21T10:07:27.665Z,94.98
2018-12-21T10:09:54.619Z,94.49
2018-12-21T10:12:22.502Z,93.74
2018-12-21T10:14:51.376Z,93.98
2018-12-21T10:17:19.011Z,94.90
2018-12-21T10:19:46.588Z,93.45
2018-12-21T10:22:14.167Z,93.95
2018-12-21T10:24:41.827Z,94.00
2018-12-21T10:27:09.486Z,93.92
2018-12-21T10:29:37.085Z,93.97
2018-12-21T10:32:04.684Z,93.47
2018-12-21T10:34:32.273Z,92.32
2018-12-21T10:37:00.554Z,93.20
2018-12-21T10:39:28.343Z,92.90
2018-12-21T10:41:55.928Z,92.09
2018-12-21T10:44:23.555Z,92.53
2018-12-21T10:46:51.231Z,92.18
2018-12-21T10:49:18.826Z,92.88
2018-12-21T10:51:46.435Z,92.81
2018-12-21T10:54:14.078Z,92.54
2018-12-21T10:56:41.700Z,92.11
2018-12-21T10:59:09.455Z,92.19
2018-12-21T11:01:37.077Z,92.45
2018-12-21T11:04:04.785Z,91.51
2018-12-21T11:06:32.347Z,91.59
2018-12-21T11:09:00.135Z,92.28
2018-12-21T11:11:27.720Z,92.02
2018-12-21T11:13:56.418Z,92.39
2018-12-21T11:16:24.041Z,92.25
2018-12-21T11:18:51.760Z,92.30
2018-12-21T11:21:19.434Z,92.18
2018-12-21T11:23:47.031Z,92.64
2018-12-21T11:26:14.743Z,92.21
2018-12-21T11:28:42.412Z,91.88
2018-12-21T11:31:10.332Z,91.63
2018-12-21T11:33:37.930Z,91.21
2018-12-21T11:36:05.555Z,91.71
2018-12-21T11:38:33.177Z,91.86
2018-12-21T11:41:00.872Z,91.42
2018-12-21T11:43:28.517Z,92.00
2018-12-21T11:45:56.210Z,91.49
2018-12-21T11:48:23.903Z,92.00
2018-12-21T11:50:51.493Z,92.11
2018-12-21T11:53:19.064Z,92.33
2018-12-21T11:55:46.663Z,92.35
2018-12-21T11:58:14.418Z,92.82
2018-12-21T12:00:42.548Z,93.25
2018-12-21T12:03:10.387Z,93.74
2018-12-21T12:05:38.028Z,93.81
2018-12-21T12:08:05.780Z,93.34
2018-12-21T12:10:33.579Z,93.54
2018-12-21T12:13:01.471Z,93.83
2018-12-21T12:15:29.059Z,94.29
2018-12-21T12:17:56.751Z,94.63
2018-12-21T12:20:24.314Z,94.29
2018-12-21T12:22:52.200Z,94.55
2018-12-21T12:25:19.996Z,94.71
2018-12-21T12:27:47.616Z,94.94
2018-12-21T12:30:15.797Z,95.24
2018-12-21T12:32:43.419Z,95.70
2018-12-21T12:35:11.229Z,96.29
2018-12-21T12:37:38.775Z,96.70
2018-12-21T12:40:07.024Z,97.22
2018-12-21T12:42:34.604Z,97.17
2018-12-21T12:45:02.179Z,96.84
2018-12-21T12:47:29.758Z,97.13
2018-12-21T12:49:57.345Z,98.00
2018-12-21T12:52:25.200Z,98.43
2018-12-21T12:55:02.304Z,98.89
2018-12-21T12:57:22.397Z,99.24
2018-12-21T12:59:49.987Z,98.95
2018-12-21T13:02:17.755Z,100.00
2018-12-21T13:04:45.393Z,100.00
2018-12-21T13:07:13.044Z,100.00
2018-12-21T13:09:40.691Z,100.00
2018-12-21T13:12:08.270Z,100.00
2018-12-21T13:14:35.865Z,100.00
2018-12-21T13:17:03.524Z,100.00
2018-12-21T13:19:31.136Z,100.00
2018-12-21T13:21:58.734Z,100.00
2018-12-21T13:24:26.316Z,100.00
2018-12-21T13:26:53.918Z,100.00
2018-12-21T13:29:21.475Z,100.00
2018-12-21T13:31:49.101Z,100.00
2018-12-21T13:34:16.670Z,100.00
2018-12-21T13:36:44.310Z,100.00
2018-12-21T13:39:12.139Z,100.00
2018-12-21T13:41:39.956Z,100.00
2018-12-21T13:44:07.623Z,100.00
2018-12-21T13:46:35.164Z,100.00
2018-12-21T13:49:02.760Z,100.00
2018-12-21T13:51:30.650Z,100.00
2018-12-21T13:53:58.318Z,100.00
2018-12-21T13:56:26.292Z,100.00
2018-12-21T13:58:53.899Z,100.00
2018-12-21T14:01:21.447Z,100.00
2018-12-21T14:03:49.016Z,100.00
2018-12-21T14:06:16.612Z,100.00
2018-12-21T14:08:53.507Z,100.00
2018-12-21T14:11:23.057Z,100.00
2018-12-21T14:13:53.136Z,100.00
2018-12-21T14:16:22.916Z,100.00
2018-12-21T14:18:58.926Z,100.00
2018-12-21T14:21:26.533Z,100.00
2018-12-21T14:23:54.094Z,100.00
2018-12-21T14:26:22.024Z,100.00
2018-12-21T14:28:49.654Z,100.00
2018-12-21T14:31:17.268Z,100.00
2018-12-21T14:33:44.920Z,100.00
2018-12-21T14:36:12.595Z,100.00
2018-12-21T14:38:40.215Z,100.00
2018-12-21T14:41:07.829Z,100.00
2018-12-21T14:43:35.387Z,100.00
2018-12-21T14:46:03.032Z,100.00
2018-12-21T14:48:30.877Z,100.00
2018-12-21T14:50:58.465Z,100.00
2018-12-21T14:53:26.094Z,100.00
2018-12-21T14:55:53.691Z,100.00
2018-12-21T14:58:21.327Z,100.00
2018-12-21T15:00:48.927Z,100.00
2018-12-21T15:03:16.532Z,100.00
2018-12-21T15:05:44.085Z,100.00
2018-12-21T15:08:11.720Z,100.00
2018-12-21T15:10:39.317Z,100.00
2018-12-21T15:13:06.918Z,100.00
2018-12-21T15:15:34.513Z,100.00
2018-12-21T15:18:02.140Z,100.00
2018-12-21T15:20:29.754Z,100.00
2018-12-21T15:22:57.326Z,100.00
2018-12-21T15:25:24.914Z,100.00
2018-12-21T15:27:52.493Z,100.00
2018-12-21T15:30:20.120Z,100.00
2018-12-21T15:32:47.694Z,100.00
2018-12-21T15:35:15.656Z,100.00
2018-12-21T15:37:43.212Z,100.00
2018-12-21T15:40:10.800Z,100.00
2018-12-21T15:42:38.371Z,100.00
2018-12-21T15:45:07.010Z,100.00
2018-12-21T15:47:34.585Z,100.00
2018-12-21T15:50:02.165Z,100.00
2018-12-21T15:52:29.804Z,100.00
2018-12-21T15:54:57.388Z,100.00
2018-12-21T15:57:24.987Z,100.00
2018-12-21T15:59:52.868Z,100.00
2018-12-21T16:02:20.625Z,100.00
2018-12-21T16:04:48.318Z,100.00
2018-12-21T16:07:15.906Z,100.00
2018-12-21T16:09:43.514Z,100.00
2018-12-21T16:12:11.165Z,100.00
2018-12-21T16:14:38.800Z,100.00
2018-12-21T16:17:06.422Z,100.00
2018-12-21T16:19:34.025Z,100.00
2018-12-21T16:22:01.633Z,100.00
2018-12-21T16:24:29.216Z,100.00
2018-12-21T16:26:56.793Z,100.00
2018-12-21T16:29:24.420Z,100.00
2018-12-21T16:31:55.304Z,100.00
2018-12-21T16:34:22.924Z,100.00
2018-12-21T16:36:50.618Z,100.00
2018-12-21T16:39:18.223Z,100.00
2018-12-21T16:41:45.787Z,100.00
2018-12-21T16:44:13.807Z,100.00
2018-12-21T16:46:41.399Z,100.00
2018-12-21T16:49:09.257Z,100.00
2018-12-21T16:51:36.877Z,100.00
2018-12-21T16:54:04.480Z,100.00
2018-12-21T16:56:32.258Z,100.00
2018-12-21T16:58:59.981Z,100.00
2018-12-21T17:01:27.621Z,100.00
2018-12-21T17:03:55.237Z,100.00
2018-12-21T17:06:22.814Z,100.00
2018-12-21T17:08:50.700Z,100.00
2018-12-21T17:11:18.324Z,100.00
2018-12-21T17:13:45.988Z,100.00
2018-12-21T17:16:13.606Z,100.00
2018-12-21T17:18:41.214Z,100.00
2018-12-21T17:21:08.789Z,100.00
2018-12-21T17:23:36.398Z,100.00
2018-12-21T17:26:03.988Z,100.00
2018-12-21T17:28:32.277Z,100.00
2018-12-21T17:30:59.987Z,100.00
2018-12-21T17:33:27.583Z,100.00
2018-12-21T17:35:55.198Z,100.00
2018-12-21T17:38:22.884Z,100.00
2018-12-21T17:40:50.986Z,100.00
2018-12-21T17:43:18.571Z,100.00
2018-12-21T17:45:51.112Z,100.00
2018-12-21T17:48:18.825Z,100.00
2018-12-21T17:50:46.459Z,100.00
2018-12-21T17:53:14.078Z,100.00
2018-12-21T17:55:41.669Z,100.00
2018-12-21T17:58:09.358Z,100.00
2018-12-21T18:00:37.115Z,100.00
2018-12-21T18:03:04.813Z,100.00
2018-12-21T18:05:32.536Z,100.00
2018-12-21T18:08:00.107Z,100.00
2018-12-21T18:10:27.897Z,100.00
2018-12-21T18:12:55.490Z,100.00
2018-12-21T18:15:23.118Z,100.00
2018-12-21T18:17:50.740Z,100.00
2018-12-21T18:20:18.326Z,100.00
2018-12-21T18:22:45.947Z,100.00
2018-12-21T18:25:13.562Z,100.00
2018-12-21T18:27:41.179Z,100.00
2018-12-21T18:30:18.647Z,100.00
2018-12-21T18:32:46.471Z,100.00
2018-12-21T18:35:14.293Z,100.00
2018-12-21T18:37:45.274Z,100.00
2018-12-21T18:40:12.861Z,100.00
2018-12-21T18:42:40.514Z,100.00
2018-12-21T18:45:08.985Z,100.00
2018-12-21T18:47:36.591Z,100.00
2018-12-21T18:50:06.841Z,100.00
2018-12-21T18:52:34.498Z,100.00
2018-12-21T18:55:02.146Z,100.00
2018-12-21T18:57:30.147Z,100.00
2018-12-21T18:59:57.747Z,100.00
2018-12-21T19:02:25.388Z,100.00
2018-12-21T19:04:52.964Z,100.00
2018-12-21T19:07:22.081Z,100.00
2018-12-21T19:09:49.872Z,100.00
2018-12-21T19:12:17.457Z,100.00
2018-12-21T19:14:45.000Z,100.00
2018-12-21T19:17:12.610Z,100.00
2018-12-21T19:19:40.204Z,100.00
2018-12-21T19:22:07.817Z,100.00
2018-12-21T19:24:35.409Z,100.00
2018-12-21T19:27:03.001Z,100.00
2018-12-21T19:29:30.573Z,100.00
2018-12-21T19:31:58.155Z,100.00
2018-12-21T19:34:25.747Z,100.00
2018-12-21T19:36:53.324Z,100.00
2018-12-21T19:39:20.930Z,100.00
2018-12-21T19:41:48.596Z,100.00
2018-12-21T19:44:16.194Z,100.00
2018-12-21T19:46:43.934Z,100.00
2018-12-21T19:49:11.625Z,100.00
2018-12-21T19:51:39.389Z,100.00
2018-12-21T19:54:07.108Z,100.00
2018-12-21T19:56:38.254Z,100.00
2018-12-21T19:59:05.826Z,100.00
2018-12-21T20:01:33.528Z,100.00
2018-12-21T20:04:01.116Z,100.00
2018-12-21T20:06:28.713Z,100.00
2018-12-21T20:08:56.293Z,100.00
2018-12-21T20:11:23.861Z,100.00
2018-12-21T20:13:51.532Z,100.00
2018-12-21T20:16:20.343Z,100.00
2018-12-21T20:18:47.932Z,100.00
2018-12-21T20:21:15.514Z,100.00
2018-12-21T20:23:43.106Z,100.00
2018-12-21T20:26:11.080Z,100.00
2018-12-21T20:28:38.867Z,100.00
2018-12-21T20:31:06.647Z,100.00
2018-12-21T20:33:34.347Z,100.00
2018-12-21T20:36:02.022Z,100.00
2018-12-21T20:38:29.621Z,100.00
2018-12-21T20:40:59.117Z,100.00
2018-12-21T20:43:26.718Z,100.00
2018-12-21T20:45:54.285Z,100.00
2018-12-21T20:48:21.875Z,100.00
2018-12-21T20:50:49.550Z,100.00
2018-12-21T20:53:17.192Z,100.00
2018-12-21T20:55:44.839Z,100.00
2018-12-21T20:58:14.140Z,100.00
2018-12-21T21:00:41.874Z,100.00
2018-12-21T21:03:09.557Z,100.00
2018-12-21T21:05:37.145Z,100.00
2018-12-21T21:08:04.770Z,100.00
2018-12-21T21:10:32.382Z,100.00
2018-12-21T21:13:00.103Z,100.00
2018-12-21T21:15:28.133Z,99.03
2018-12-21T21:17:56.002Z,99.39
2018-12-21T21:20:23.630Z,98.53
2018-12-21T21:22:51.220Z,96.94
2018-12-21T21:25:22.431Z,94.01
2018-12-21T21:27:50.464Z,93.64
2018-12-21T21:30:19.624Z,92.81
2018-12-21T21:32:47.397Z,92.08
2018-12-21T21:35:15.305Z,93.29
2018-12-21T21:37:43.270Z,91.90
2018-12-21T21:40:15.486Z,89.79
2018-12-21T21:42:44.728Z,89.60
2018-12-21T21:45:12.703Z,88.65
2018-12-21T21:47:40.350Z,88.41
2018-12-21T21:50:09.818Z,88.30
2018-12-21T21:52:37.486Z,88.02
2018-12-21T21:55:05.714Z,86.54
2018-12-21T21:57:39.192Z,86.74
2018-12-21T22:00:08.965Z,85.41
2018-12-21T22:02:36.893Z,85.03
2018-12-21T22:05:04.752Z,85.89
2018-12-21T22:07:33.699Z,84.86
2018-12-21T22:10:01.540Z,84.22
2018-12-21T22:12:29.220Z,85.03
2018-12-21T22:14:57.537Z,85.08
2018-12-21T22:17:25.120Z,84.45
2018-12-21T22:19:52.681Z,83.79
2018-12-21T22:22:20.253Z,84.56
2018-12-21T22:24:47.847Z,84.98
2018-12-21T22:27:15.424Z,85.53
2018-12-21T22:29:42.990Z,86.00
2018-12-21T22:32:10.599Z,87.05
2018-12-21T22:34:38.212Z,86.99
2018-12-21T22:37:05.816Z,88.14
2018-12-21T22:39:33.405Z,87.71
2018-12-21T22:42:01.113Z,88.88
2018-12-21T22:44:28.768Z,89.30
2018-12-21T22:46:56.410Z,90.46
2018-12-21T22:49:23.982Z,90.85
2018-12-21T22:51:51.585Z,92.51
2018-12-21T22:54:19.229Z,93.11
2018-12-21T22:56:46.785Z,94.36
2018-12-21T22:59:14.341Z,94.55
2018-12-21T23:01:41.919Z,96.13
2018-12-21T23:04:09.491Z,96.39
2018-12-21T23:06:37.099Z,96.91
2018-12-21T23:09:05.684Z,97.01
2018-12-21T23:11:33.391Z,96.92
2018-12-21T23:14:00.955Z,97.29
2018-12-21T23:16:28.535Z,96.89
2018-12-21T23:18:56.119Z,96.39
2018-12-21T23:21:23.690Z,96.44
2018-12-21T23:23:51.240Z,96.68
2018-12-21T23:26:19.259Z,97.12
2018-12-21T23:28:46.883Z,96.89
2018-12-21T23:31:14.511Z,97.03
2018-12-21T23:33:42.297Z,97.63
2018-12-21T23:36:09.883Z,98.11
2018-12-21T23:38:37.447Z,97.08
2018-12-21T23:41:05.042Z,97.75
2018-12-21T23:43:32.776Z,96.84
2018-12-21T23:46:00.399Z,94.35
2018-12-21T23:48:27.998Z,94.37
2018-12-21T23:50:55.868Z,93.14
2018-12-21T23:53:23.525Z,93.24
2018-12-21T23:55:51.114Z,93.84
2018-12-21T23:58:18.680Z,92.96
